createdAt,value
2023-05-15T00:00:47.373Z,11.93
2023-05-15T00:04:09.225Z,8.48
2023-05-15T00:07:30.452Z,11.05
2023-05-15T00:11:01.332Z,17.70
2023-05-15T00:14:23.474Z,11.30
2023-05-15T00:17:44.898Z,9.70
2023-05-15T00:21:06.473Z,9.45
2023-05-15T00:24:27.876Z,12.25
2023-05-15T00:27:50.530Z,8.57
2023-05-15T00:31:13.133Z,8.27
2023-05-15T00:34:34.677Z,10.85
2023-05-15T00:37:56.113Z,14.25
2023-05-15T00:41:19.098Z,8.82
2023-05-15T00:44:44.844Z,10.57
2023-05-15T00:48:08.582Z,12.25
2023-05-15T00:51:29.985Z,10.52
2023-05-15T00:54:51.285Z,13.07
2023-05-15T00:58:15.873Z,16.20
2023-05-15T01:01:38.868Z,10.85
2023-05-15T01:05:00.842Z,10.55
2023-05-15T01:08:28.059Z,13.23
2023-05-15T01:11:54.452Z,10.88
2023-05-15T01:15:15.662Z,12.27
2023-05-15T01:18:40.622Z,11.07
2023-05-15T01:22:34.073Z,11.43
2023-05-15T01:33:34.832Z,12.77
2023-05-15T01:37:01.054Z,11.23
2023-05-15T01:40:26.642Z,11.00
2023-05-15T01:43:55.674Z,11.75
2023-05-15T01:47:23.214Z,11.32
2023-05-15T01:50:47.119Z,11.82
2023-05-15T01:54:09.998Z,11.77
2023-05-15T01:57:32.833Z,12.50
2023-05-15T02:00:55.000Z,9.82
2023-05-15T02:04:19.115Z,12.13
2023-05-15T02:07:45.011Z,10.40
2023-05-15T02:11:07.961Z,16.17
2023-05-15T02:14:30.671Z,12.63
2023-05-15T02:17:52.600Z,12.48
2023-05-15T02:21:14.559Z,12.73
2023-05-15T02:24:39.203Z,11.50
2023-05-15T02:28:02.786Z,13.95
2023-05-15T02:31:31.520Z,12.65
2023-05-15T02:35:00.904Z,16.25
2023-05-15T02:38:29.439Z,13.10
2023-05-15T02:41:54.102Z,14.93
2023-05-15T02:45:16.346Z,13.80
2023-05-15T02:48:40.852Z,11.52
2023-05-15T02:52:02.568Z,13.00
2023-05-15T02:55:24.018Z,13.75
2023-05-15T02:58:47.446Z,10.88
2023-05-15T03:02:09.077Z,13.73
2023-05-15T03:05:31.346Z,12.57
2023-05-15T03:08:52.776Z,11.60
2023-05-15T03:12:14.296Z,12.77
2023-05-15T03:15:37.365Z,11.65
2023-05-15T03:18:59.277Z,14.95
2023-05-15T03:22:20.843Z,12.63
2023-05-15T03:25:42.587Z,12.25
2023-05-15T03:29:03.999Z,13.02
2023-05-15T03:32:27.187Z,15.32
2023-05-15T03:35:48.499Z,16.05
2023-05-15T03:39:09.852Z,15.07
2023-05-15T03:42:32.540Z,13.27
2023-05-15T03:45:53.990Z,13.73
2023-05-15T03:49:17.089Z,14.60
2023-05-15T03:52:40.042Z,15.65
2023-05-15T03:56:03.532Z,15.00
2023-05-15T03:59:25.104Z,14.15
2023-05-15T04:02:46.544Z,15.07
2023-05-15T04:06:09.500Z,13.90
2023-05-15T04:09:31.160Z,13.57
2023-05-15T04:12:53.063Z,14.73
2023-05-15T04:16:14.373Z,14.05
2023-05-15T04:19:35.994Z,14.23
2023-05-15T04:22:59.254Z,18.02
2023-05-15T04:26:20.641Z,11.40
2023-05-15T04:29:42.373Z,16.08
2023-05-15T04:33:04.076Z,13.38
2023-05-15T04:36:25.772Z,12.73
2023-05-15T04:39:49.354Z,13.95
2023-05-15T04:43:11.161Z,15.77
2023-05-15T04:46:37.407Z,15.77
2023-05-15T04:49:58.956Z,18.27
2023-05-15T04:53:20.569Z,16.15
2023-05-15T04:56:43.354Z,13.55
2023-05-15T05:00:10.236Z,14.07
2023-05-15T05:03:32.112Z,14.68
2023-05-15T05:06:53.857Z,16.38
2023-05-15T05:10:15.335Z,20.08
2023-05-15T05:13:38.008Z,17.15
2023-05-15T05:17:00.037Z,15.63
2023-05-15T05:20:21.875Z,13.82
2023-05-15T05:23:43.257Z,16.25
2023-05-15T05:27:04.972Z,15.23
2023-05-15T05:30:28.282Z,15.00
2023-05-15T05:33:51.428Z,12.98
2023-05-15T05:37:12.826Z,19.80
2023-05-15T05:40:34.079Z,17.13
2023-05-15T05:43:56.118Z,16.55
2023-05-15T05:47:19.121Z,22.23
2023-05-15T05:50:40.492Z,15.48
2023-05-15T05:54:02.288Z,16.17
2023-05-15T05:57:24.028Z,19.88
2023-05-15T06:00:45.998Z,18.25
2023-05-15T06:04:09.343Z,19.65
2023-05-15T06:07:31.688Z,18.73
2023-05-15T06:10:53.135Z,18.00
2023-05-15T06:14:14.369Z,18.73
2023-05-15T06:17:36.173Z,19.67
2023-05-15T06:21:00.604Z,25.67
2023-05-15T06:24:22.446Z,18.63
2023-05-15T06:27:44.136Z,22.15
2023-05-15T06:31:06.122Z,18.20
2023-05-15T06:34:27.763Z,21.33
2023-05-15T06:37:51.984Z,18.52
2023-05-15T06:41:13.714Z,19.40
2023-05-15T06:44:35.150Z,20.63
2023-05-15T06:47:59.223Z,21.65
2023-05-15T06:51:22.854Z,18.00
2023-05-15T06:54:46.010Z,21.33
2023-05-15T06:58:07.799Z,17.40
2023-05-15T07:01:30.060Z,19.05
2023-05-15T07:04:51.893Z,18.88
2023-05-15T07:08:13.966Z,15.52
2023-05-15T07:11:38.785Z,16.73
2023-05-15T07:15:00.521Z,23.02
2023-05-15T07:18:22.203Z,17.10
2023-05-15T07:21:43.965Z,16.67
2023-05-15T07:25:06.570Z,16.92
2023-05-15T07:28:29.262Z,18.17
2023-05-15T07:31:51.054Z,17.55
2023-05-15T07:35:12.723Z,18.45
2023-05-15T07:38:34.582Z,15.07
2023-05-15T07:41:56.801Z,17.33
2023-05-15T07:45:19.814Z,12.27
2023-05-15T07:48:41.847Z,14.85
2023-05-15T07:52:03.871Z,14.32
2023-05-15T07:55:25.710Z,15.75
2023-05-15T07:58:47.283Z,16.27
2023-05-15T08:02:10.073Z,14.73
2023-05-15T08:05:31.860Z,18.00
2023-05-15T08:08:53.618Z,20.52
2023-05-15T08:12:20.862Z,19.85
2023-05-15T08:15:42.651Z,19.08
2023-05-15T08:19:07.517Z,20.02
2023-05-15T08:22:30.409Z,20.25
2023-05-15T08:25:52.032Z,21.38
2023-05-15T08:29:13.818Z,22.85
2023-05-15T08:32:35.521Z,16.80
2023-05-15T08:35:58.926Z,16.02
2023-05-15T08:39:20.576Z,13.73
2023-05-15T08:42:45.993Z,12.27
2023-05-15T08:46:08.135Z,16.77
2023-05-15T08:49:38.267Z,15.82
2023-05-15T08:53:01.658Z,17.92
2023-05-15T08:56:23.165Z,13.10
2023-05-15T08:59:45.004Z,14.15
2023-05-15T09:03:06.752Z,11.75
2023-05-15T09:06:29.386Z,11.15
2023-05-15T09:09:53.223Z,12.23
2023-05-15T09:13:15.952Z,15.82
2023-05-15T09:16:37.690Z,15.00
2023-05-15T09:19:59.366Z,8.88
2023-05-15T09:23:26.170Z,11.82
2023-05-15T09:27:02.963Z,13.80
2023-05-15T09:30:24.660Z,12.23
2023-05-15T09:33:46.010Z,14.35
2023-05-15T09:37:08.975Z,10.77
2023-05-15T09:40:32.208Z,12.13
2023-05-15T09:43:56.707Z,10.50
2023-05-15T09:47:19.019Z,10.07
2023-05-15T09:50:41.099Z,9.05
2023-05-15T09:54:02.709Z,22.48
2023-05-15T09:57:24.422Z,10.40
2023-05-15T10:00:49.700Z,11.85
2023-05-15T10:04:11.585Z,11.40
2023-05-15T10:07:34.445Z,9.57
2023-05-15T10:10:59.645Z,10.68
2023-05-15T10:14:23.695Z,12.65
2023-05-15T10:17:50.589Z,8.80
2023-05-15T10:21:13.476Z,9.60
2023-05-15T10:24:35.957Z,10.35
2023-05-15T10:27:59.133Z,11.98
2023-05-15T10:31:24.426Z,11.75
2023-05-15T10:34:47.872Z,9.77
2023-05-15T10:38:10.218Z,9.70
2023-05-15T10:41:34.010Z,10.20
2023-05-15T10:45:00.238Z,12.25
2023-05-15T10:48:23.184Z,11.32
2023-05-15T10:51:47.322Z,8.95
2023-05-15T10:55:10.624Z,7.90
2023-05-15T10:58:34.976Z,9.55
2023-05-15T11:01:58.506Z,10.65
2023-05-15T11:05:20.577Z,9.43
2023-05-15T11:08:45.115Z,11.18
2023-05-15T11:12:08.725Z,10.13
2023-05-15T11:15:42.876Z,12.25
2023-05-15T11:19:04.522Z,11.30
2023-05-15T11:22:31.679Z,8.75
2023-05-15T11:25:57.518Z,10.60
2023-05-15T11:29:19.307Z,13.38
2023-05-15T11:32:55.470Z,11.32
2023-05-15T11:36:18.519Z,10.98
2023-05-15T11:39:40.424Z,14.52
2023-05-15T11:43:19.060Z,12.10
2023-05-15T11:46:40.724Z,8.77
2023-05-15T11:50:05.058Z,14.55
2023-05-15T11:53:30.337Z,10.80
2023-05-15T11:56:52.006Z,8.90
2023-05-15T12:00:15.965Z,9.10
2023-05-15T12:03:37.440Z,11.27
2023-05-15T12:07:00.931Z,11.38
2023-05-15T12:10:23.788Z,9.38
2023-05-15T12:13:45.445Z,11.77
2023-05-15T12:17:08.533Z,12.02
2023-05-15T12:20:31.337Z,10.93
2023-05-15T12:24:06.202Z,10.63
2023-05-15T12:27:29.657Z,6.97
2023-05-15T12:30:51.757Z,2.53
2023-05-15T12:34:15.527Z,7.53
2023-05-15T12:37:37.428Z,4.47
2023-05-15T12:40:59.415Z,7.18
2023-05-15T12:44:21.453Z,2.20
2023-05-15T12:47:44.762Z,6.45
2023-05-15T12:51:09.085Z,6.80
2023-05-15T12:54:31.493Z,5.13
2023-05-15T12:57:53.454Z,3.10
2023-05-15T13:01:15.904Z,6.93
2023-05-15T13:04:37.682Z,2.53
2023-05-15T13:08:01.165Z,3.38
2023-05-15T13:11:22.630Z,3.47
2023-05-15T13:14:44.534Z,6.32
2023-05-15T13:18:07.975Z,8.93
2023-05-15T13:21:29.858Z,6.45
2023-05-15T13:24:53.276Z,6.25
2023-05-15T13:28:15.375Z,6.53
2023-05-15T13:31:37.068Z,5.50
2023-05-15T13:34:58.828Z,7.53
2023-05-15T13:38:20.866Z,6.30
2023-05-15T13:41:44.057Z,10.38
2023-05-15T13:45:06.710Z,8.98
2023-05-15T13:48:28.281Z,8.35
2023-05-15T13:51:50.161Z,7.35
2023-05-15T13:55:12.443Z,5.97
2023-05-15T13:58:35.441Z,7.18
2023-05-15T14:01:56.810Z,5.75
2023-05-15T14:05:19.007Z,9.85
2023-05-15T14:08:40.628Z,8.13
2023-05-15T14:12:02.213Z,8.68
2023-05-15T14:15:24.878Z,7.85
2023-05-15T14:18:46.547Z,11.07
2023-05-15T14:22:08.335Z,8.95
2023-05-15T14:25:29.756Z,6.40
2023-05-15T14:28:51.066Z,6.60
2023-05-15T14:32:13.945Z,6.65
2023-05-15T14:35:35.740Z,8.73
2023-05-15T14:39:00.204Z,6.47
2023-05-15T14:42:22.284Z,8.48
2023-05-15T14:45:43.656Z,7.13
2023-05-15T14:49:06.750Z,6.13
2023-05-15T14:52:28.836Z,7.50
2023-05-15T14:55:50.902Z,6.72
2023-05-15T14:59:14.343Z,8.07
2023-05-15T15:02:36.507Z,9.57
2023-05-15T15:05:59.549Z,9.45
2023-05-15T15:09:21.476Z,7.20
2023-05-15T15:12:43.371Z,8.63
2023-05-15T15:16:05.125Z,8.35
2023-05-15T15:19:27.147Z,8.88
2023-05-15T15:22:50.606Z,7.72
2023-05-15T15:26:12.004Z,7.00
2023-05-15T15:29:34.061Z,6.68
2023-05-15T15:32:55.909Z,10.98
2023-05-15T15:36:17.296Z,7.75
2023-05-15T15:39:40.736Z,10.82
2023-05-15T15:43:02.288Z,7.43
2023-05-15T15:46:24.202Z,16.60
2023-05-15T15:49:45.956Z,7.03
2023-05-15T15:53:07.765Z,8.23
2023-05-15T15:56:30.860Z,6.32
2023-05-15T15:59:52.860Z,7.43
2023-05-15T16:03:14.466Z,7.18
2023-05-15T16:06:36.223Z,8.60
2023-05-15T16:10:10.574Z,6.28
2023-05-15T16:13:35.448Z,7.63
2023-05-15T16:16:56.815Z,6.72
2023-05-15T16:20:18.800Z,7.05
2023-05-15T16:23:41.359Z,8.10
2023-05-15T16:27:03.171Z,7.05
2023-05-15T16:30:33.663Z,6.45
2023-05-15T16:34:03.685Z,6.88
2023-05-15T16:37:25.341Z,6.55
2023-05-15T16:40:47.484Z,6.22
2023-05-15T16:44:11.048Z,6.03
2023-05-15T16:47:34.289Z,6.65
2023-05-15T16:50:55.893Z,8.43
2023-05-15T16:54:17.070Z,8.77
2023-05-15T16:57:39.344Z,7.72
2023-05-15T17:01:01.135Z,7.25
2023-05-15T17:04:23.758Z,5.30
2023-05-15T17:07:45.978Z,6.35
2023-05-15T17:11:07.453Z,7.05
2023-05-15T17:14:28.797Z,6.13
2023-05-15T17:17:50.563Z,6.60
2023-05-15T17:21:13.632Z,5.65
2023-05-15T17:24:49.473Z,5.72
2023-05-15T17:28:12.884Z,6.25
2023-05-15T17:31:35.423Z,6.03
2023-05-15T17:34:57.388Z,7.72
2023-05-15T17:38:20.250Z,7.88
2023-05-15T17:41:41.797Z,7.25
2023-05-15T17:45:03.746Z,10.20
2023-05-15T17:48:24.997Z,8.02
2023-05-15T17:51:46.684Z,8.18
2023-05-15T17:55:10.629Z,9.63
2023-05-15T17:58:32.882Z,9.20
2023-05-15T18:01:55.160Z,7.63
2023-05-15T18:05:17.186Z,9.18
2023-05-15T18:08:38.915Z,7.60
2023-05-15T18:12:01.681Z,8.35
2023-05-15T18:15:23.411Z,8.23
2023-05-15T18:18:45.318Z,9.63
2023-05-15T18:22:06.665Z,8.07
2023-05-15T18:25:28.206Z,8.00
2023-05-15T18:28:51.049Z,10.23
2023-05-15T18:32:12.784Z,9.90
2023-05-15T18:35:35.688Z,7.80
2023-05-15T18:38:57.048Z,8.15
2023-05-15T18:42:18.442Z,8.73
2023-05-15T18:45:41.506Z,7.53
2023-05-15T18:49:02.985Z,8.80
2023-05-15T18:52:26.478Z,8.38
2023-05-15T18:55:48.051Z,7.40
2023-05-15T18:59:10.765Z,8.95
2023-05-15T19:02:34.407Z,8.85
2023-05-15T19:05:58.181Z,8.43
2023-05-15T19:09:19.877Z,7.78
2023-05-15T19:12:41.404Z,8.13
2023-05-15T19:16:04.310Z,9.88
2023-05-15T19:19:27.461Z,7.13
2023-05-15T19:22:49.089Z,8.15
2023-05-15T19:26:10.900Z,8.63
2023-05-15T19:29:33.718Z,8.52
2023-05-15T19:32:55.325Z,9.27
2023-05-15T19:36:19.002Z,11.77
2023-05-15T19:39:41.543Z,7.32
2023-05-15T19:43:02.881Z,8.02
2023-05-15T19:46:24.695Z,8.65
2023-05-15T19:49:45.972Z,7.43
2023-05-15T19:53:11.056Z,8.55
2023-05-15T19:56:32.843Z,7.55
2023-05-15T19:59:54.523Z,7.75
2023-05-15T20:03:16.488Z,8.32
2023-05-15T20:06:38.229Z,8.07
2023-05-15T20:10:01.176Z,8.27
2023-05-15T20:13:22.735Z,8.13
2023-05-15T20:16:44.735Z,10.57
2023-05-15T20:20:10.838Z,7.72
2023-05-15T20:23:32.826Z,7.78
2023-05-15T20:26:55.686Z,8.88
2023-05-15T20:30:17.669Z,9.35
2023-05-15T20:33:39.189Z,8.57
2023-05-15T20:37:02.702Z,9.38
2023-05-15T20:40:26.276Z,9.32
2023-05-15T20:43:49.648Z,7.68
2023-05-15T20:47:11.389Z,7.97
2023-05-15T20:50:33.261Z,10.60
2023-05-15T20:53:54.516Z,10.48
2023-05-15T20:57:15.960Z,8.57
2023-05-15T21:00:39.112Z,8.45
2023-05-15T21:04:00.887Z,9.07
2023-05-15T21:07:22.404Z,9.43
2023-05-15T21:10:43.961Z,9.07
2023-05-15T21:14:05.789Z,8.85
2023-05-15T21:17:29.120Z,9.63
2023-05-15T21:20:50.655Z,9.73
2023-05-15T21:24:12.470Z,11.95
2023-05-15T21:27:33.730Z,8.07
2023-05-15T21:31:16.961Z,9.80
2023-05-15T21:34:40.080Z,8.43
2023-05-15T21:38:01.855Z,8.63
2023-05-15T21:41:23.580Z,11.80
2023-05-15T21:44:44.988Z,9.00
2023-05-15T21:48:06.329Z,9.00
2023-05-15T21:51:29.450Z,8.70
2023-05-15T21:54:51.422Z,9.35
2023-05-15T21:58:12.855Z,9.18
2023-05-15T22:01:34.525Z,9.70
2023-05-15T22:04:56.142Z,8.25
2023-05-15T22:08:18.751Z,8.93
2023-05-15T22:11:39.912Z,15.05
2023-05-15T22:15:02.453Z,8.52
2023-05-15T22:18:24.290Z,9.05
2023-05-15T22:21:46.230Z,8.98
2023-05-15T22:25:10.382Z,11.75
2023-05-15T22:28:31.779Z,10.15
2023-05-15T22:31:53.602Z,12.75
2023-05-15T22:35:15.865Z,9.68
2023-05-15T22:38:37.195Z,9.65
2023-05-15T22:42:00.439Z,9.60
2023-05-15T22:45:22.010Z,9.40
2023-05-15T22:48:43.385Z,10.15
2023-05-15T22:52:05.612Z,10.25
2023-05-15T22:55:27.273Z,12.23
2023-05-15T22:58:50.298Z,9.05
2023-05-15T23:02:11.609Z,10.25
2023-05-15T23:05:32.907Z,10.43
2023-05-15T23:08:54.759Z,9.18
2023-05-15T23:12:16.109Z,11.38
2023-05-15T23:15:38.812Z,9.52
2023-05-15T23:19:00.829Z,11.27
2023-05-15T23:22:22.620Z,12.68
2023-05-15T23:25:44.401Z,11.02
2023-05-15T23:29:06.150Z,9.18
2023-05-15T23:32:29.318Z,10.27
2023-05-15T23:35:52.340Z,9.80
2023-05-15T23:39:13.800Z,11.48
2023-05-15T23:42:35.636Z,10.82
2023-05-15T23:45:57.358Z,11.68
2023-05-15T23:49:20.367Z,11.98
2023-05-15T23:52:41.674Z,11.52
2023-05-15T23:56:03.532Z,9.50
2023-05-15T23:59:25.510Z,11.75
